createdAt,value
2019-05-28T00:00:13.409Z,93.20
2019-05-28T00:02:44.590Z,93.40
2019-05-28T00:05:14.347Z,93.20
2019-05-28T00:07:43.137Z,93.10
2019-05-28T00:10:12.343Z,92.90
2019-05-28T00:12:40.894Z,92.60
2019-05-28T00:15:11.516Z,93.10
2019-05-28T00:17:40.002Z,92.60
2019-05-28T00:20:09.411Z,92.40
2019-05-28T00:22:38.568Z,92.20
2019-05-28T00:25:08.851Z,91.80
2019-05-28T00:27:37.341Z,91.50
2019-05-28T00:30:19.238Z,91.20
2019-05-28T00:32:39.309Z,91.00
2019-05-28T00:35:09.230Z,91.10
2019-05-28T00:37:37.741Z,91.10
2019-05-28T00:40:07.060Z,91.00
2019-05-28T00:42:35.617Z,90.90
2019-05-28T00:45:06.235Z,90.90
2019-05-28T00:47:34.940Z,91.00
2019-05-28T00:50:08.149Z,91.00
2019-05-28T00:52:36.773Z,91.10
2019-05-28T00:55:09.368Z,91.10
2019-05-28T00:57:41.190Z,91.10
2019-05-28T01:00:10.283Z,90.90
2019-05-28T01:02:39.152Z,90.90
2019-05-28T01:05:08.187Z,90.80
2019-05-28T01:07:36.860Z,90.80
2019-05-28T01:10:07.436Z,90.90
2019-05-28T01:12:36.015Z,90.80
2019-05-28T01:15:06.673Z,91.00
2019-05-28T01:17:35.556Z,90.80
2019-05-28T01:20:06.797Z,90.90
2019-05-28T01:22:35.375Z,91.10
2019-05-28T01:25:06.543Z,91.00
2019-05-28T01:27:35.138Z,91.00
2019-05-28T01:30:07.909Z,91.20
2019-05-28T01:32:36.456Z,91.20
2019-05-28T01:35:07.907Z,91.20
2019-05-28T01:37:36.440Z,91.20
2019-05-28T01:40:08.224Z,91.10
2019-05-28T01:42:36.760Z,91.30
2019-05-28T01:45:08.605Z,91.40
2019-05-28T01:47:37.339Z,91.70
2019-05-28T01:50:07.968Z,91.60
2019-05-28T01:52:36.757Z,91.80
2019-05-28T01:55:09.434Z,91.70
2019-05-28T01:57:37.916Z,91.50
2019-05-28T02:00:07.933Z,92.10
2019-05-28T02:02:36.495Z,92.30
2019-05-28T02:05:09.505Z,91.90
2019-05-28T02:07:38.052Z,91.70
2019-05-28T02:10:07.863Z,91.90
2019-05-28T02:12:36.703Z,91.80
2019-05-28T02:15:10.607Z,91.70
2019-05-28T02:17:39.404Z,91.60
2019-05-28T02:20:09.762Z,92.10
2019-05-28T02:22:38.740Z,91.80
2019-05-28T02:25:08.607Z,92.30
2019-05-28T02:31:01.033Z,92.30
2019-05-28T02:33:29.587Z,92.00
2019-05-28T02:35:58.457Z,92.30
2019-05-28T02:38:27.086Z,92.30
2019-05-28T02:40:55.668Z,92.10
2019-05-28T02:43:24.271Z,92.50
2019-05-28T02:45:52.928Z,92.20
2019-05-28T02:48:21.496Z,92.60
2019-05-28T02:50:56.016Z,92.40
2019-05-28T02:53:24.934Z,92.60
2019-05-28T02:55:54.456Z,92.40
2019-05-28T02:58:24.835Z,92.80
2019-05-28T03:00:57.114Z,92.70
2019-05-28T03:03:27.632Z,92.80
2019-05-28T03:05:58.319Z,92.60
2019-05-28T03:08:31.592Z,92.80
2019-05-28T03:11:03.950Z,92.50
2019-05-28T03:13:32.310Z,92.80
2019-05-28T03:16:03.475Z,92.90
2019-05-28T03:18:34.822Z,93.00
2019-05-28T03:21:04.849Z,92.80
2019-05-28T03:23:35.872Z,92.70
2019-05-28T03:26:04.589Z,93.10
2019-05-28T03:28:33.802Z,93.00
2019-05-28T03:31:02.748Z,93.10
2019-05-28T03:33:31.531Z,93.10
2019-05-28T03:36:02.282Z,93.30
2019-05-28T03:38:32.886Z,93.00
2019-05-28T03:41:02.226Z,93.10
2019-05-28T03:43:30.893Z,93.10
2019-05-28T03:45:59.521Z,93.30
2019-05-28T03:48:28.182Z,93.10
2019-05-28T03:50:57.027Z,93.10
2019-05-28T03:53:25.823Z,93.20
2019-05-28T03:55:54.442Z,93.30
2019-05-28T03:58:23.029Z,93.20
2019-05-28T04:00:51.650Z,92.70
2019-05-28T04:03:20.244Z,93.00
2019-05-28T04:05:48.804Z,93.00
2019-05-28T04:08:17.392Z,93.10
2019-05-28T04:10:45.968Z,93.20
2019-05-28T04:13:14.579Z,92.80
2019-05-28T04:15:43.142Z,92.60
2019-05-28T04:18:11.736Z,92.60
2019-05-28T04:20:40.301Z,92.60
2019-05-28T04:23:11.881Z,92.60
2019-05-28T04:25:40.369Z,92.70
2019-05-28T04:28:08.950Z,92.60
2019-05-28T04:30:37.461Z,92.60
2019-05-28T04:33:05.995Z,92.60
2019-05-28T04:35:34.575Z,92.60
2019-05-28T04:38:03.589Z,92.40
2019-05-28T04:40:32.067Z,92.70
2019-05-28T04:43:02.293Z,92.40
2019-05-28T04:45:30.876Z,92.30
2019-05-28T04:47:59.397Z,92.30
2019-05-28T04:50:27.983Z,92.10
2019-05-28T04:52:56.557Z,92.20
2019-05-28T04:55:25.111Z,92.00
2019-05-28T04:57:53.640Z,91.90
2019-05-28T05:00:22.461Z,91.80
2019-05-28T05:02:59.365Z,91.60
2019-05-28T05:05:21.463Z,91.50
2019-05-28T05:07:50.034Z,91.40
2019-05-28T05:10:19.463Z,91.40
2019-05-28T05:12:48.294Z,91.10
2019-05-28T05:15:16.981Z,91.10
2019-05-28T05:17:45.543Z,91.00
2019-05-28T05:20:14.472Z,90.80
2019-05-28T05:22:43.052Z,90.40
2019-05-28T05:25:11.866Z,90.30
2019-05-28T05:27:40.445Z,90.00
2019-05-28T05:30:09.747Z,89.90
2019-05-28T05:32:38.373Z,89.20
2019-05-28T05:35:07.142Z,88.80
2019-05-28T05:37:35.790Z,89.80
2019-05-28T05:40:06.163Z,88.40
2019-05-28T05:42:34.750Z,88.70
2019-05-28T05:45:07.333Z,87.50
2019-05-28T05:47:34.560Z,86.50
2019-05-28T05:50:04.739Z,86.30
2019-05-28T05:52:33.281Z,86.00
2019-05-28T05:55:01.886Z,86.00
2019-05-28T05:57:30.411Z,85.80
2019-05-28T05:59:59.005Z,85.40
2019-05-28T06:02:27.563Z,84.20
2019-05-28T06:04:56.174Z,83.80
2019-05-28T06:07:24.728Z,85.30
2019-05-28T06:09:53.312Z,83.40
2019-05-28T06:12:21.884Z,82.30
2019-05-28T06:14:50.484Z,82.80
2019-05-28T06:17:19.034Z,81.40
2019-05-28T06:19:47.676Z,81.00
2019-05-28T06:22:16.309Z,79.90
2019-05-28T06:24:44.910Z,79.20
2019-05-28T06:27:13.451Z,78.90
2019-05-28T06:29:41.985Z,78.60
2019-05-28T06:32:10.621Z,79.50
2019-05-28T06:34:39.142Z,80.10
2019-05-28T06:37:07.710Z,78.50
2019-05-28T06:39:36.315Z,78.00
2019-05-28T06:42:04.931Z,77.50
2019-05-28T06:44:33.459Z,78.10
2019-05-28T06:47:02.012Z,78.40
2019-05-28T06:49:30.542Z,77.20
2019-05-28T06:51:59.117Z,76.70
2019-05-28T06:54:27.692Z,76.80
2019-05-28T06:56:56.274Z,76.70
2019-05-28T06:59:25.662Z,75.90
2019-05-28T07:01:54.254Z,75.90
2019-05-28T07:04:32.421Z,75.60
2019-05-28T07:06:53.071Z,77.00
2019-05-28T07:09:21.659Z,75.80
2019-05-28T07:11:50.232Z,74.80
2019-05-28T07:14:18.726Z,76.40
2019-05-28T07:16:53.135Z,74.30
2019-05-28T07:19:24.710Z,74.00
2019-05-28T07:21:47.652Z,73.10
2019-05-28T07:24:16.261Z,73.80
2019-05-28T07:26:44.794Z,73.70
2019-05-28T07:29:13.428Z,74.10
2019-05-28T07:31:41.982Z,72.50
2019-05-28T07:34:10.543Z,72.50
2019-05-28T07:36:39.030Z,71.40
2019-05-28T07:39:07.669Z,70.10
2019-05-28T07:41:36.165Z,69.30
2019-05-28T07:44:04.858Z,69.30
2019-05-28T07:46:33.451Z,68.90
2019-05-28T07:49:02.057Z,67.80
2019-05-28T07:51:30.616Z,66.70
2019-05-28T07:53:59.231Z,68.40
2019-05-28T07:56:27.745Z,67.50
2019-05-28T07:58:56.279Z,67.10
2019-05-28T08:01:24.929Z,67.70
2019-05-28T08:03:53.520Z,66.50
2019-05-28T08:06:22.081Z,66.10
2019-05-28T08:08:51.138Z,65.00
2019-05-28T08:11:19.788Z,62.80
2019-05-28T08:13:51.709Z,60.80
2019-05-28T08:16:19.294Z,60.10
2019-05-28T08:18:48.070Z,58.80
2019-05-28T08:21:16.558Z,59.10
2019-05-28T08:23:45.131Z,57.10
2019-05-28T08:26:13.738Z,56.50
2019-05-28T08:28:42.254Z,57.60
2019-05-28T08:31:16.485Z,58.80
2019-05-28T08:33:41.235Z,58.50
2019-05-28T08:36:09.879Z,57.50
2019-05-28T08:38:38.433Z,58.00
2019-05-28T08:41:07.098Z,57.30
2019-05-28T08:43:35.728Z,58.60
2019-05-28T08:46:04.503Z,57.00
2019-05-28T08:48:33.047Z,57.80
2019-05-28T08:51:01.653Z,58.60
2019-05-28T08:53:30.137Z,59.40
2019-05-28T08:55:58.764Z,58.70
2019-05-28T08:58:27.373Z,60.40
2019-05-28T09:00:55.929Z,57.50
2019-05-28T09:03:24.520Z,55.50
2019-05-28T09:05:53.200Z,56.90
2019-05-28T09:08:37.932Z,57.50
2019-05-28T09:10:51.910Z,58.10
2019-05-28T09:13:20.461Z,58.60
2019-05-28T09:15:49.089Z,57.60
2019-05-28T09:18:17.637Z,57.50
2019-05-28T09:20:46.184Z,58.80
2019-05-28T09:23:14.741Z,56.80
2019-05-28T09:25:43.303Z,56.10
2019-05-28T09:28:28.236Z,58.40
2019-05-28T09:30:42.121Z,57.70
2019-05-28T09:33:10.706Z,58.20
2019-05-28T09:35:44.526Z,56.80
2019-05-28T09:38:09.501Z,58.40
2019-05-28T09:40:49.823Z,57.70
2019-05-28T09:43:08.284Z,57.30
2019-05-28T09:45:36.868Z,57.70
2019-05-28T09:48:05.522Z,57.20
2019-05-28T09:50:34.094Z,56.70
2019-05-28T09:53:02.831Z,57.60
2019-05-28T09:55:31.751Z,57.40
2019-05-28T09:58:00.236Z,56.40
2019-05-28T10:00:29.943Z,56.60
2019-05-28T10:02:58.481Z,55.00
2019-05-28T10:05:27.120Z,55.20
2019-05-28T10:07:55.697Z,54.20
2019-05-28T10:10:24.352Z,54.70
2019-05-28T10:12:52.899Z,53.90
2019-05-28T10:15:21.669Z,52.60
2019-05-28T10:17:50.250Z,53.00
2019-05-28T10:20:19.633Z,51.70
2019-05-28T10:22:48.287Z,50.50
2019-05-28T10:25:17.206Z,50.60
2019-05-28T10:28:00.384Z,50.40
2019-05-28T10:30:16.652Z,50.00
2019-05-28T10:32:45.161Z,48.80
2019-05-28T10:35:14.367Z,49.00
2019-05-28T10:37:42.876Z,49.50
2019-05-28T10:40:12.381Z,45.70
2019-05-28T10:42:40.959Z,45.40
2019-05-28T10:45:11.146Z,45.60
2019-05-28T10:47:39.839Z,45.90
2019-05-28T10:50:09.128Z,45.00
2019-05-28T10:52:37.722Z,43.40
2019-05-28T10:55:09.002Z,43.20
2019-05-28T10:57:37.559Z,46.00
2019-05-28T11:00:09.993Z,43.40
2019-05-28T11:02:38.570Z,44.50
2019-05-28T11:05:08.904Z,45.50
2019-05-28T11:07:37.586Z,44.20
2019-05-28T11:10:23.036Z,44.30
2019-05-28T11:12:40.235Z,45.40
2019-05-28T11:15:10.473Z,46.10
2019-05-28T11:17:39.186Z,44.10
2019-05-28T11:20:10.304Z,45.20
2019-05-28T11:22:41.798Z,45.00
2019-05-28T11:25:12.179Z,45.00
2019-05-28T11:27:40.744Z,44.60
2019-05-28T11:30:11.810Z,43.60
2019-05-28T11:32:40.368Z,44.30
2019-05-28T11:35:10.014Z,45.50
2019-05-28T11:37:38.545Z,45.10
2019-05-28T11:40:11.765Z,45.80
2019-05-28T11:42:40.455Z,46.20
2019-05-28T11:45:12.034Z,45.20
2019-05-28T11:47:41.468Z,45.10
2019-05-28T11:50:10.658Z,46.20
2019-05-28T11:52:39.257Z,46.70
2019-05-28T11:55:15.423Z,46.40
2019-05-28T11:57:44.079Z,46.40
2019-05-28T12:00:14.787Z,46.00
2019-05-28T12:02:43.478Z,45.60
2019-05-28T12:05:12.767Z,46.60
2019-05-28T12:07:41.377Z,47.50
2019-05-28T12:10:10.718Z,46.20
2019-05-28T12:12:42.242Z,46.70
2019-05-28T12:15:13.136Z,46.10
2019-05-28T12:17:45.128Z,47.30
2019-05-28T12:20:14.320Z,47.90
2019-05-28T12:22:43.238Z,46.50
2019-05-28T12:25:15.868Z,45.80
2019-05-28T12:27:44.435Z,46.50
2019-05-28T12:30:18.215Z,46.90
2019-05-28T12:32:46.103Z,46.70
2019-05-28T12:35:27.367Z,46.70
2019-05-28T12:37:48.573Z,47.00
2019-05-28T12:40:16.333Z,47.20
2019-05-28T12:42:44.961Z,46.90
2019-05-28T12:45:15.525Z,45.20
2019-05-28T12:47:44.122Z,44.70
2019-05-28T12:50:19.723Z,46.10
2019-05-28T12:52:47.114Z,45.40
2019-05-28T12:55:14.536Z,45.50
2019-05-28T12:57:43.058Z,45.40
2019-05-28T13:00:13.456Z,44.90
2019-05-28T13:02:42.323Z,44.30
2019-05-28T13:05:13.794Z,43.90
2019-05-28T13:07:42.521Z,42.80
2019-05-28T13:10:11.507Z,41.80
2019-05-28T13:12:40.167Z,42.30
2019-05-28T13:15:10.082Z,44.40
2019-05-28T13:17:38.687Z,42.40
2019-05-28T13:20:09.065Z,43.00
2019-05-28T13:22:37.786Z,42.30
2019-05-28T13:25:07.307Z,42.80
2019-05-28T13:27:35.953Z,42.60
2019-05-28T13:30:08.419Z,42.60
2019-05-28T13:32:37.205Z,42.80
2019-05-28T13:35:09.043Z,42.30
2019-05-28T13:37:37.695Z,43.10
2019-05-28T13:40:08.116Z,40.00
2019-05-28T13:42:36.835Z,41.70
2019-05-28T13:45:07.203Z,40.10
2019-05-28T13:47:35.743Z,40.60
2019-05-28T13:50:09.039Z,42.30
2019-05-28T13:52:37.684Z,40.50
2019-05-28T13:55:07.894Z,42.60
2019-05-28T13:57:39.371Z,41.30
2019-05-28T14:00:11.459Z,41.00
2019-05-28T14:02:45.515Z,41.60
2019-05-28T14:05:11.703Z,39.50
2019-05-28T14:07:40.287Z,39.90
2019-05-28T14:10:09.877Z,40.40
2019-05-28T14:12:38.386Z,40.60
2019-05-28T14:15:08.302Z,40.90
2019-05-28T14:17:36.915Z,41.00
2019-05-28T14:20:07.307Z,41.10
2019-05-28T14:22:36.330Z,40.70
2019-05-28T14:25:06.235Z,40.60
2019-05-28T14:27:35.075Z,41.80
2019-05-28T14:30:05.413Z,41.10
2019-05-28T14:32:33.991Z,42.30
2019-05-28T14:35:02.535Z,41.90
2019-05-28T14:37:31.175Z,41.10
2019-05-28T14:39:59.779Z,42.20
2019-05-28T14:42:28.450Z,41.10
2019-05-28T14:44:57.021Z,42.20
2019-05-28T14:47:25.570Z,42.20
2019-05-28T14:49:54.088Z,43.10
2019-05-28T14:52:22.663Z,43.10
2019-05-28T14:54:51.452Z,43.80
2019-05-28T14:57:20.136Z,43.80
2019-05-28T14:59:48.700Z,44.10
2019-05-28T15:02:17.283Z,44.00
2019-05-28T15:04:45.854Z,44.50
2019-05-28T15:07:14.465Z,44.50
2019-05-28T15:09:43.028Z,44.70
2019-05-28T15:12:11.567Z,45.50
2019-05-28T15:14:40.118Z,45.70
2019-05-28T15:17:08.679Z,45.70
2019-05-28T15:19:37.259Z,45.70
2019-05-28T15:22:05.912Z,45.30
2019-05-28T15:24:34.439Z,45.40
2019-05-28T15:27:03.055Z,45.70
2019-05-28T15:29:31.614Z,44.90
2019-05-28T15:32:00.164Z,45.10
2019-05-28T15:34:28.739Z,45.10
2019-05-28T15:36:57.337Z,45.50
2019-05-28T15:39:39.042Z,45.90
2019-05-28T15:41:56.213Z,45.60
2019-05-28T15:44:24.786Z,46.00
2019-05-28T15:46:53.351Z,47.00
2019-05-28T15:49:21.992Z,47.30
2019-05-28T15:51:50.619Z,47.70
2019-05-28T15:54:19.223Z,47.80
2019-05-28T15:56:47.792Z,47.80
2019-05-28T15:59:16.408Z,47.40
2019-05-28T16:01:44.976Z,47.10
2019-05-28T16:04:13.559Z,47.60
2019-05-28T16:06:42.111Z,47.60
2019-05-28T16:09:12.877Z,48.00
2019-05-28T16:11:40.944Z,48.10
2019-05-28T16:14:09.536Z,48.60
2019-05-28T16:16:38.128Z,49.10
2019-05-28T16:19:06.721Z,49.00
2019-05-28T16:21:35.298Z,49.60
2019-05-28T16:24:04.000Z,49.30
2019-05-28T16:26:32.583Z,49.50
2019-05-28T16:29:01.129Z,49.90
2019-05-28T16:31:29.682Z,50.00
2019-05-28T16:33:58.293Z,49.90
2019-05-28T16:36:26.893Z,49.60
2019-05-28T16:38:55.505Z,50.30
2019-05-28T16:41:24.091Z,50.30
2019-05-28T16:43:52.681Z,50.10
2019-05-28T16:46:21.277Z,50.80
2019-05-28T16:48:49.911Z,51.20
2019-05-28T16:51:18.452Z,51.20
2019-05-28T16:53:47.097Z,52.00
2019-05-28T16:56:15.635Z,51.70
2019-05-28T16:58:44.180Z,51.80
2019-05-28T17:01:22.238Z,51.80
2019-05-28T17:03:43.035Z,52.20
2019-05-28T17:06:11.670Z,53.00
2019-05-28T17:08:40.283Z,53.50
2019-05-28T17:11:08.904Z,53.50
2019-05-28T17:13:37.580Z,53.70
2019-05-28T17:16:06.262Z,53.50
2019-05-28T17:18:34.850Z,53.90
2019-05-28T17:21:03.962Z,53.80
2019-05-28T17:23:32.565Z,54.00
2019-05-28T17:26:01.160Z,53.70
2019-05-28T17:28:29.812Z,54.30
2019-05-28T17:30:58.410Z,54.20
2019-05-28T17:33:27.014Z,54.60
2019-05-28T17:35:57.517Z,54.90
2019-05-28T17:38:26.146Z,55.40
2019-05-28T17:40:54.723Z,55.90
2019-05-28T17:43:23.392Z,56.50
2019-05-28T17:45:52.047Z,57.10
2019-05-28T17:48:22.170Z,57.40
2019-05-28T17:50:53.160Z,57.60
2019-05-28T17:53:21.040Z,58.10
2019-05-28T17:55:49.612Z,58.40
2019-05-28T17:58:18.221Z,59.00
2019-05-28T18:00:46.809Z,59.20
2019-05-28T18:03:15.428Z,59.70
2019-05-28T18:05:44.007Z,60.20
2019-05-28T18:08:12.618Z,60.40
2019-05-28T18:10:41.307Z,60.60
2019-05-28T18:13:17.341Z,60.70
2019-05-28T18:15:46.007Z,60.90
2019-05-28T18:18:16.116Z,61.20
2019-05-28T18:20:44.953Z,61.90
2019-05-28T18:23:13.635Z,62.30
2019-05-28T18:25:42.452Z,62.60
2019-05-28T18:28:11.039Z,62.70
2019-05-28T18:30:39.730Z,62.40
2019-05-28T18:33:08.362Z,62.90
2019-05-28T18:35:39.925Z,62.70
2019-05-28T18:38:08.547Z,62.90
2019-05-28T18:40:37.181Z,62.70
2019-05-28T18:43:05.978Z,62.80
2019-05-28T18:45:34.688Z,62.60
2019-05-28T18:48:03.313Z,62.70
2019-05-28T18:50:32.020Z,63.00
2019-05-28T18:53:01.091Z,62.30
2019-05-28T18:55:35.251Z,63.20
2019-05-28T18:58:04.121Z,63.00
2019-05-28T19:00:32.748Z,63.30
2019-05-28T19:03:04.903Z,63.40
2019-05-28T19:05:33.554Z,63.60
2019-05-28T19:08:02.178Z,63.60
2019-05-28T19:10:30.911Z,63.70
2019-05-28T19:13:00.629Z,63.90
2019-05-28T19:15:31.610Z,64.00
2019-05-28T19:18:00.717Z,64.00
2019-05-28T19:20:29.575Z,64.60
2019-05-28T19:22:58.238Z,65.00
2019-05-28T19:25:27.060Z,64.60
2019-05-28T19:27:56.196Z,65.20
2019-05-28T19:30:35.237Z,65.10
2019-05-28T19:33:05.412Z,65.20
2019-05-28T19:35:34.200Z,64.90
2019-05-28T19:38:03.165Z,65.90
2019-05-28T19:40:40.551Z,65.70
2019-05-28T19:43:09.267Z,65.60
2019-05-28T19:45:39.616Z,65.30
2019-05-28T19:48:09.849Z,65.60
2019-05-28T19:50:39.145Z,65.40
2019-05-28T19:53:07.899Z,65.10
2019-05-28T19:55:36.780Z,65.80
2019-05-28T19:58:05.676Z,65.10
2019-05-28T20:00:34.601Z,65.30
2019-05-28T20:03:03.281Z,65.00
2019-05-28T20:05:31.999Z,65.10
2019-05-28T20:08:00.729Z,65.40
2019-05-28T20:10:29.558Z,65.50
2019-05-28T20:12:58.187Z,65.30
2019-05-28T20:15:27.358Z,65.40
2019-05-28T20:17:56.685Z,65.70
2019-05-28T20:20:25.602Z,65.80
2019-05-28T20:22:54.157Z,65.50
2019-05-28T20:25:22.929Z,66.00
2019-05-28T20:27:51.871Z,65.90
2019-05-28T20:30:20.950Z,65.90
2019-05-28T20:32:49.600Z,66.60
2019-05-28T20:35:18.364Z,66.40
2019-05-28T20:37:47.008Z,66.60
2019-05-28T20:40:16.290Z,65.40
2019-05-28T20:42:45.450Z,65.50
2019-05-28T20:45:14.848Z,65.10
2019-05-28T20:47:43.424Z,64.60
2019-05-28T20:50:12.723Z,65.00
2019-05-28T20:52:41.378Z,65.00
2019-05-28T20:55:10.881Z,64.90
2019-05-28T20:57:39.517Z,65.20
2019-05-28T21:00:12.733Z,65.20
2019-05-28T21:02:41.414Z,65.20
2019-05-28T21:05:10.345Z,65.10
2019-05-28T21:07:38.975Z,65.30
2019-05-28T21:10:10.548Z,65.40
2019-05-28T21:12:44.570Z,65.00
2019-05-28T21:15:10.231Z,65.40
2019-05-28T21:17:38.803Z,66.00
2019-05-28T21:20:08.539Z,66.00
2019-05-28T21:22:37.316Z,66.10
2019-05-28T21:25:07.896Z,66.30
2019-05-28T21:27:36.399Z,66.40
2019-05-28T21:30:09.612Z,66.30
2019-05-28T21:32:38.156Z,66.60
2019-05-28T21:35:07.311Z,66.80
2019-05-28T21:37:35.798Z,66.30
2019-05-28T21:40:06.434Z,66.10
2019-05-28T21:42:35.368Z,66.20
2019-05-28T21:45:06.125Z,66.00
2019-05-28T21:47:34.677Z,65.70
2019-05-28T21:50:04.830Z,65.80
2019-05-28T21:52:33.407Z,65.70
2019-05-28T21:55:03.531Z,65.70
2019-05-28T21:57:32.256Z,66.10
2019-05-28T22:00:02.218Z,65.90
2019-05-28T22:02:31.055Z,66.00
2019-05-28T22:05:03.470Z,66.30
2019-05-28T22:07:29.847Z,66.10
2019-05-28T22:09:58.444Z,66.30
2019-05-28T22:12:27.122Z,65.70
2019-05-28T22:14:55.933Z,66.30
2019-05-28T22:17:24.570Z,66.50
2019-05-28T22:19:53.117Z,67.60
2019-05-28T22:22:21.657Z,66.70
2019-05-28T22:24:50.237Z,65.90
2019-05-28T22:27:18.826Z,66.90
2019-05-28T22:29:47.379Z,67.20
2019-05-28T22:32:16.332Z,67.10
2019-05-28T22:34:44.879Z,67.20
2019-05-28T22:37:13.377Z,67.20
2019-05-28T22:39:41.965Z,67.00
2019-05-28T22:42:10.571Z,67.50
2019-05-28T22:44:39.168Z,67.80
2019-05-28T22:47:07.738Z,67.90
2019-05-28T22:49:36.285Z,66.50
2019-05-28T22:52:05.947Z,67.70
2019-05-28T22:54:37.717Z,67.50
2019-05-28T22:57:06.833Z,67.10
2019-05-28T22:59:36.464Z,66.50
2019-05-28T23:02:05.261Z,67.00
2019-05-28T23:04:33.803Z,67.40
2019-05-28T23:07:03.322Z,67.50
2019-05-28T23:09:33.511Z,68.10
2019-05-28T23:12:01.997Z,68.80
2019-05-28T23:14:30.472Z,69.40
2019-05-28T23:17:00.192Z,68.30
2019-05-28T23:19:29.513Z,68.60
2019-05-28T23:21:58.094Z,68.90
2019-05-28T23:24:26.576Z,69.30
2019-05-28T23:26:55.165Z,69.80
2019-05-28T23:29:23.738Z,70.60
2019-05-28T23:31:52.250Z,69.90
2019-05-28T23:34:20.734Z,70.40
2019-05-28T23:36:49.310Z,69.20
2019-05-28T23:39:17.783Z,69.80
2019-05-28T23:41:46.406Z,69.90
2019-05-28T23:44:14.916Z,70.20
2019-05-28T23:46:43.439Z,70.00
2019-05-28T23:49:12.271Z,69.50
2019-05-28T23:51:41.204Z,69.10
2019-05-28T23:54:09.779Z,69.70
2019-05-28T23:56:38.371Z,70.90
2019-05-28T23:59:07.695Z,70.60
